Humidity-temperature Sensor

Selected Measurement Type: Relative Humidity

 
Relative Humidity [%]     6 entries per hour
Showing data from 9/10/2020 (00:00:00 Z) to 9/7/2020 (00:01:00 Z)
Previous Next [ Day | 3-Days | 7-Days ]
First Last
Prev [ Day | 3-Days | 7-Days ] Next
First Last

Start Time:     :
End Time:     :     
Time (in GMT) :00 :50 :40 :30 :20 :10
Previous Next [ Day | 3-Days | 7-Days ]
First Last
Prev [ Day | 3-Days | 7-Days ] Next
First Last


123 => good data
MM => data is determined as missing
-- => data not received/configured
Back to Top Back to Top
9/10/2020 00:00 to 23:10 73.25 72.94 73.58 72.88 72.94 73.37
9/9/2020 23:00 to 22:10 74.34 73.27 73.85 74.01 73.52 73.46
9/9/2020 22:00 to 21:10 72.92 74.26 73.42 73.13 74.03 74.61
9/9/2020 21:00 to 20:10 75.92 75.80 75.96 75.67 75.30 76.04
9/9/2020 20:00 to 19:10 75.86 76.54 76.37 77.23 78.34 78.32
9/9/2020 19:00 to 18:10 79.27 79.78 78.98 78.34 77.01 77.26
9/9/2020 18:00 to 17:10 79.35 78.61 79.14 79.58 79.84 79.31
9/9/2020 17:00 to 16:10 79.31 78.47 77.75 78.22 80.09 79.86
9/9/2020 16:00 to 15:10 81.36 82.80 82.80 81.81 79.76 81.01
9/9/2020 15:00 to 14:10 80.03 79.12 78.96 79.12 79.86 81.16
9/9/2020 14:00 to 13:10 81.69 82.88 83.68 84.38 83.00 83.99
9/9/2020 13:00 to 12:10 87.27 88.22 87.99 88.03 86.54 88.77
9/9/2020 12:00 to 11:10 88.44 86.12 82.37 81.81 83.66 86.31
9/9/2020 11:00 to 10:10 86.99 83.99 83.58 83.99 83.54 82.57
9/9/2020 10:00 to 9:10 83.27 83.85 85.24 85.47 85.65 85.53
9/9/2020 09:00 to 8:10 87.75 92.16 90.93 88.34 85.08 77.50
9/9/2020 08:00 to 7:10 78.22 78.63 80.42 76.68 75.61 71.81
9/9/2020 07:00 to 6:10 73.44 74.28 76.50 77.91 76.29 71.01
9/9/2020 06:00 to 5:10 69.45 69.88 71.08 71.03 71.77 72.12
9/9/2020 05:00 to 4:10 73.15 72.37 72.20 73.23 72.78 72.06
9/9/2020 04:00 to 3:10 70.44 71.40 74.81 71.55 74.18 73.66
9/9/2020 03:00 to 2:10 71.32 71.42 70.69 69.99 71.34 70.77
9/9/2020 02:00 to 1:10 72.68 71.65 71.18 73.09 75.28 74.22
9/9/2020 01:00 to 0:10 75.98 75.28 75.76 75.61 75.98 75.37
9/9/2020 00:00 to 23:10 74.67 73.17 76.87 76.21 74.71 75.76
9/8/2020 23:00 to 22:10 75.16 72.84 72.86 78.82 78.20 73.89
9/8/2020 22:00 to 21:10 77.03 76.15 75.84 76.62 78.24 77.48
9/8/2020 21:00 to 20:10 76.58 76.11 75.86 75.12 75.98 75.47
9/8/2020 20:00 to 19:10 74.81 75.76 77.38 77.87 78.84 79.88
9/8/2020 19:00 to 18:10 79.64 78.75 75.69 74.63 75.02 75.76
9/8/2020 18:00 to 17:10 75.49 76.35 78.80 81.12 79.78 77.91
9/8/2020 17:00 to 16:10 78.06 76.89 76.41 75.67 76.13 76.06
9/8/2020 16:00 to 15:10 74.24 71.86 73.48 72.62 71.45 72.29
9/8/2020 15:00 to 14:10 73.25 71.75 74.71 73.77 76.37 78.04
9/8/2020 14:00 to 13:10 77.32 79.68 79.92 82.47 86.41 82.84
9/8/2020 13:00 to 12:10 83.19 83.19 75.98 80.79 84.09 88.22
9/8/2020 12:00 to 11:10 85.28 80.21 82.49 83.89 79.84 75.37
9/8/2020 11:00 to 10:10 75.20 75.55 76.04 76.70 75.92 75.55
9/8/2020 10:00 to 9:10 77.32 77.79 76.58 78.20 75.16 74.61
9/8/2020 09:00 to 8:10 74.44 74.73 76.25 76.54 76.41 77.44
9/8/2020 08:00 to 7:10 77.15 76.93 75.04 74.83 75.72 75.20
9/8/2020 07:00 to 6:10 75.18 74.94 75.08 75.37 75.16 74.75
9/8/2020 06:00 to 5:10 75.65 76.00 74.96 75.88 75.67 76.66
9/8/2020 05:00 to 4:10 76.06 74.87 74.98 73.03 71.84 72.14
9/8/2020 04:00 to 3:10 72.84 73.91 74.24 72.33 72.94 73.21
9/8/2020 03:00 to 2:10 71.81 71.67 74.38 75.53 76.04 75.04
9/8/2020 02:00 to 1:10 76.93 74.65 73.89 73.58 75.67 76.17
9/8/2020 01:00 to 0:10 75.26 74.77 76.93 78.86 80.11 79.70
9/8/2020 00:00 to 23:10 77.26 77.05 77.58 73.72 73.46 74.69
9/7/2020 23:00 to 22:10 72.18 75.65 75.55 75.26 75.92 77.44
9/7/2020 22:00 to 21:10 76.43 76.56 75.10 74.75 77.11 76.78
9/7/2020 21:00 to 20:10 77.17 76.39 75.82 73.52 72.98 74.44
9/7/2020 20:00 to 19:10 73.01 71.65 70.52 69.91 69.68 69.23
9/7/2020 19:00 to 18:10 71.51 71.53 70.62 73.79 72.33 63.81
9/7/2020 18:00 to 17:10 72.84 72.35 65.55 58.90 66.93 72.18
9/7/2020 17:00 to 16:10 70.05 69.64 68.94 73.95 72.57 67.46
9/7/2020 16:00 to 15:10 73.62 79.41 81.57 82.24 78.49 81.40
9/7/2020 15:00 to 14:10 84.91 85.67 85.76 78.92 74.73 86.27
9/7/2020 14:00 to 13:10 85.55 84.38 81.63 84.19 84.15 84.01
9/7/2020 13:00 to 12:10 85.61 85.06 85.88 89.00 89.02 86.15
9/7/2020 12:00 to 11:10 83.80 84.07 83.46 84.26 82.65 83.17
9/7/2020 11:00 to 10:10 79.88 80.64 82.41 76.25 75.78 77.15
9/7/2020 10:00 to 9:10 77.30 77.21 74.98 75.55 79.41 78.18
9/7/2020 09:00 to 8:10 78.77 79.04 77.01 76.97 76.48 77.46
9/7/2020 08:00 to 7:10 76.52 76.13 76.80 75.67 75.82 75.00
9/7/2020 07:00 to 6:10 75.30 76.31 77.34 77.28 77.89 78.04
9/7/2020 06:00 to 5:10 76.82 75.69 76.23 75.41 76.11 76.21
9/7/2020 05:00 to 4:10 74.81 72.96 71.75 73.19 72.66 72.92
9/7/2020 04:00 to 3:10 71.73 77.11 77.11 74.05 73.91 74.77
9/7/2020 03:00 to 2:10 72.06 73.52 75.06 73.37 73.27 73.37
9/7/2020 02:00 to 1:10 73.66 74.03 75.30 74.44 75.08 74.30
9/7/2020 01:00 to 0:10 73.79 75.47 75.18 74.16 74.11 75.10